Time;durP1;ratioP1;P1;durP2;ratioP2;P2;SDS_P1;SDS_P2;PMS_P1;PMS_P2;Temp;Humidity;BMP_temperature;BMP_pressure;BME280_temperature;BME280_humidity;BME280_pressure;Samples;Min_cycle;Max_cycle;Signal;HPM_P1;HPM_P2
2021/10/06 00:00:38;;;;;;;10.38;5.38;;;;;;;;;;4118887;28;20039;-73
2021/10/06 00:02:40;;;;;;;7.25;5.25;;;;;;;;;;4120702;28;20035;-72
2021/10/06 00:04:41;;;;;;;8.80;5.53;;;;;;;;;;4132748;28;20058;-72
2021/10/06 00:06:42;;;;;;;7.63;5.70;;;;;;;;;;4120515;28;20482;-72
2021/10/06 00:08:43;;;;;;;7.63;5.20;;;;;;;;;;4117274;28;20573;-72
2021/10/06 00:10:44;;;;;;;7.28;5.63;;;;;;;;;;4116643;28;20031;-71
2021/10/06 00:12:46;;;;;;;10.02;6.15;;;;;;;;;;4116934;28;20047;-72
2021/10/06 00:14:47;;;;;;;8.57;5.95;;;;;;;;;;4132388;28;20058;-72
2021/10/06 00:16:48;;;;;;;7.72;5.72;;;;;;;;;;4117145;28;20050;-72
2021/10/06 00:18:50;;;;;;;13.77;6.55;;;;;;;;;;4127939;28;20031;-73
2021/10/06 00:20:51;;;;;;;15.82;7.20;;;;;;;;;;4115876;28;20556;-73
2021/10/06 00:22:52;;;;;;;13.02;6.35;;;;;;;;;;4099015;28;20027;-71
2021/10/06 00:24:53;;;;;;;7.72;6.05;;;;;;;;;;4116528;28;20526;-74
2021/10/06 00:26:54;;;;;;;9.57;6.78;;;;;;;;;;4114826;28;20034;-73
2021/10/06 00:28:55;;;;;;;8.63;5.82;;;;;;;;;;4115110;28;20043;-72
2021/10/06 00:30:57;;;;;;;10.55;5.80;;;;;;;;;;4099412;28;20451;-72
2021/10/06 00:32:58;;;;;;;11.85;5.63;;;;;;;;;;4115752;28;20162;-73
2021/10/06 00:34:59;;;;;;;10.38;5.97;;;;;;;;;;4115801;28;20398;-72
2021/10/06 00:37:00;;;;;;;11.85;5.68;;;;;;;;;;4128654;28;20521;-72
2021/10/06 00:39:02;;;;;;;10.02;5.05;;;;;;;;;;4114272;28;20399;-73
2021/10/06 00:41:03;;;;;;;10.68;6.57;;;;;;;;;;4115138;28;20039;-73
2021/10/06 00:43:05;;;;;;;10.10;5.47;;;;;;;;;;4114592;28;20039;-73
2021/10/06 00:45:07;;;;;;;11.18;5.32;;;;;;;;;;4114355;28;20031;-72
2021/10/06 00:47:12;;;;;;;8.35;4.25;;;;;;;;;;4114926;28;20039;-72
2021/10/06 00:49:14;;;;;;;8.77;5.05;;;;;;;;;;4126922;28;20078;-72
2021/10/06 00:51:17;;;;;;;11.38;5.97;;;;;;;;;;4103444;28;20446;-73
2021/10/06 00:53:18;;;;;;;9.02;4.07;;;;;;;;;;4100492;28;20047;-72
2021/10/06 00:55:19;;;;;;;9.13;4.18;;;;;;;;;;4116586;28;20482;-71
2021/10/06 00:57:20;;;;;;;12.43;4.78;;;;;;;;;;4128095;28;20034;-73
2021/10/06 00:59:21;;;;;;;10.57;4.38;;;;;;;;;;4116507;28;20437;-73
2021/10/06 01:01:22;;;;;;;7.97;4.03;;;;;;;;;;4127001;28;20038;-73
2021/10/06 01:03:24;;;;;;;9.38;4.93;;;;;;;;;;4116415;28;20387;-72
2021/10/06 01:05:25;;;;;;;8.98;3.33;;;;;;;;;;4128104;28;20058;-73
2021/10/06 01:07:26;;;;;;;11.55;3.53;;;;;;;;;;4100759;28;20058;-72
2021/10/06 01:09:30;;;;;;;10.90;3.92;;;;;;;;;;4115289;28;20530;-73
2021/10/06 01:11:31;;;;;;;;;;;;;;;;;;4114474;28;20125;-73
2021/10/06 01:13:32;;;;;;;14.70;5.00;;;;;;;;;;4107686;28;19990;-73
2021/10/06 01:15:33;;;;;;;14.00;4.95;;;;;;;;;;4124808;28;20046;-73
2021/10/06 01:17:35;;;;;;;7.15;3.45;;;;;;;;;;4112448;28;20379;-73
2021/10/06 01:19:36;;;;;;;12.88;4.05;;;;;;;;;;4110506;28;20138;-73
2021/10/06 01:21:37;;;;;;;10.20;4.15;;;;;;;;;;4124410;28;20031;-73
2021/10/06 01:23:38;;;;;;;9.63;3.85;;;;;;;;;;4110830;28;20240;-72
2021/10/06 01:25:40;;;;;;;12.60;5.75;;;;;;;;;;4112952;28;20045;-73
2021/10/06 01:27:41;;;;;;;12.18;5.38;;;;;;;;;;4114347;28;20122;-72
2021/10/06 01:29:42;;;;;;;10.95;4.78;;;;;;;;;;4127988;28;20038;-72
2021/10/06 01:31:45;;;;;;;9.68;3.45;;;;;;;;;;4113101;28;20038;-71
2021/10/06 01:33:46;;;;;;;8.00;3.85;;;;;;;;;;4113770;28;20407;-72
2021/10/06 01:35:47;;;;;;;11.45;4.10;;;;;;;;;;4116730;28;20078;-72
2021/10/06 01:37:48;;;;;;;8.95;3.70;;;;;;;;;;4129472;28;20425;-73
2021/10/06 01:39:49;;;;;;;10.32;4.05;;;;;;;;;;4098058;28;20471;-72
2021/10/06 01:41:51;;;;;;;10.23;4.20;;;;;;;;;;4130814;28;20418;-73
2021/10/06 01:43:52;;;;;;;8.77;3.50;;;;;;;;;;4130883;28;20030;-73
2021/10/06 01:45:53;;;;;;;7.72;3.90;;;;;;;;;;4125048;28;20454;-73
2021/10/06 01:47:58;;;;;;;7.75;3.70;;;;;;;;;;4114109;28;20141;-72
2021/10/06 01:49:59;;;;;;;10.25;4.00;;;;;;;;;;4114024;28;20121;-73
2021/10/06 01:52:01;;;;;;;11.43;4.28;;;;;;;;;;4113394;28;20085;-72
2021/10/06 01:54:04;;;;;;;10.70;4.32;;;;;;;;;;4097914;28;20099;-72
2021/10/06 01:56:05;;;;;;;8.60;4.15;;;;;;;;;;4113715;28;20027;-72
2021/10/06 01:58:10;;;;;;;7.13;4.43;;;;;;;;;;4121505;28;20113;-73
2021/10/06 02:00:12;;;;;;;10.45;4.60;;;;;;;;;;4114436;28;20043;-72
2021/10/06 02:02:13;;;;;;;8.82;5.53;;;;;;;;;;4125563;28;20039;-72
2021/10/06 02:04:15;;;;;;;8.82;4.15;;;;;;;;;;4114791;28;20445;-71
2021/10/06 02:06:16;;;;;;;12.85;4.07;;;;;;;;;;4114602;28;20039;-71
2021/10/06 02:08:17;;;;;;;6.20;4.78;;;;;;;;;;4097838;29;20039;-72
2021/10/06 02:10:18;;;;;;;13.15;5.30;;;;;;;;;;4113103;28;20071;-71
2021/10/06 02:12:19;;;;;;;12.23;5.05;;;;;;;;;;4129505;28;20537;-73
2021/10/06 02:14:21;;;;;;;7.85;5.25;;;;;;;;;;4115041;28;20070;-72
2021/10/06 02:16:23;;;;;;;14.35;5.85;;;;;;;;;;4129524;28;20108;-72
2021/10/06 02:18:24;;;;;;;11.48;5.25;;;;;;;;;;4129242;28;20042;-72
2021/10/06 02:20:26;;;;;;;12.65;5.95;;;;;;;;;;4129234;28;20034;-73
2021/10/06 02:22:27;;;;;;;7.13;5.25;;;;;;;;;;4114702;28;20037;-72
2021/10/06 02:24:29;;;;;;;11.25;4.97;;;;;;;;;;4115444;28;20043;-73
2021/10/06 02:26:30;;;;;;;8.82;4.53;;;;;;;;;;4112925;28;20087;-71
2021/10/06 02:28:31;;;;;;;9.35;5.97;;;;;;;;;;4113945;28;20050;-72
2021/10/06 02:30:34;;;;;;;7.43;5.03;;;;;;;;;;4129039;28;20466;-72
2021/10/06 02:32:35;;;;;;;15.52;5.32;;;;;;;;;;4127866;28;20060;-73
2021/10/06 02:34:36;;;;;;;13.50;5.78;;;;;;;;;;4126649;28;20035;-73
2021/10/06 02:36:37;;;;;;;16.45;5.03;;;;;;;;;;4105613;28;20137;-73
2021/10/06 02:38:38;;;;;;;12.35;4.78;;;;;;;;;;4110886;28;20126;-72
2021/10/06 02:40:39;;;;;;;12.10;4.85;;;;;;;;;;4114375;28;20506;-74
2021/10/06 02:42:41;;;;;;;9.30;5.03;;;;;;;;;;4111982;28;20122;-73
2021/10/06 02:44:42;;;;;;;12.68;5.57;;;;;;;;;;4110053;28;20047;-73
2021/10/06 02:46:43;;;;;;;8.55;5.05;;;;;;;;;;4127562;28;20042;-72
2021/10/06 02:48:44;;;;;;;9.07;6.25;;;;;;;;;;4113211;28;20062;-73
2021/10/06 02:50:45;;;;;;;8.82;4.45;;;;;;;;;;4129255;28;20050;-72
2021/10/06 02:52:46;;;;;;;11.43;5.15;;;;;;;;;;4112911;28;20130;-72
2021/10/06 02:54:48;;;;;;;8.65;4.65;;;;;;;;;;4129083;28;20446;-72
2021/10/06 02:56:49;;;;;;;7.15;4.13;;;;;;;;;;4112932;28;20495;-72
2021/10/06 02:58:50;;;;;;;12.13;5.10;;;;;;;;;;4114479;28;20035;-73
2021/10/06 03:00:51;;;;;;;9.73;5.85;;;;;;;;;;4112873;28;20043;-72
2021/10/06 03:02:52;;;;;;;9.30;5.95;;;;;;;;;;4113684;28;20470;-71
2021/10/06 03:04:53;;;;;;;15.05;6.68;;;;;;;;;;4113093;28;20043;-73
2021/10/06 03:06:54;;;;;;;12.40;6.90;;;;;;;;;;4114103;28;20058;-73
2021/10/06 03:08:55;;;;;;;9.10;5.53;;;;;;;;;;4126158;28;20451;-73
2021/10/06 03:10:57;;;;;;;19.25;6.85;;;;;;;;;;4113318;28;20039;-73
2021/10/06 03:12:58;;;;;;;30.92;7.88;;;;;;;;;;4114060;28;20061;-73
2021/10/06 03:14:59;;;;;;;9.32;5.53;;;;;;;;;;4115033;28;20039;-73
2021/10/06 03:17:01;;;;;;;11.77;5.88;;;;;;;;;;4110459;28;20581;-72
2021/10/06 03:19:02;;;;;;;12.75;5.25;;;;;;;;;;4113996;28;20775;-74
2021/10/06 03:21:03;;;;;;;12.80;5.68;;;;;;;;;;4128298;28;20080;-72
2021/10/06 03:23:06;;;;;;;11.75;5.05;;;;;;;;;;4130286;28;20035;-73
2021/10/06 03:25:08;;;;;;;12.77;5.43;;;;;;;;;;4125830;28;20030;-73
2021/10/06 03:27:10;;;;;;;10.27;5.72;;;;;;;;;;4112981;28;20130;-72
2021/10/06 03:29:11;;;;;;;11.20;5.07;;;;;;;;;;4101843;28;20043;-72
2021/10/06 03:31:12;;;;;;;15.82;4.93;;;;;;;;;;4110492;28;20039;-72
2021/10/06 03:33:14;;;;;;;7.70;4.32;;;;;;;;;;4108079;28;20035;-72
2021/10/06 03:35:18;;;;;;;7.60;4.70;;;;;;;;;;4111669;28;20043;-73
2021/10/06 03:37:19;;;;;;;13.32;5.05;;;;;;;;;;4115472;28;20042;-72
2021/10/06 03:39:20;;;;;;;9.30;5.30;;;;;;;;;;4115243;28;20508;-75
2021/10/06 03:41:21;;;;;;;7.53;5.63;;;;;;;;;;4097158;28;20643;-72
2021/10/06 03:43:23;;;;;;;9.90;4.90;;;;;;;;;;4123664;28;20041;-73
2021/10/06 03:45:24;;;;;;;6.90;5.03;;;;;;;;;;4128776;28;20064;-75
2021/10/06 03:47:25;;;;;;;13.90;5.68;;;;;;;;;;4112883;28;20035;-73
2021/10/06 03:49:26;;;;;;;11.55;5.93;;;;;;;;;;4113850;28;20534;-74
2021/10/06 03:51:27;;;;;;;11.60;6.85;;;;;;;;;;4113462;28;20475;-73
2021/10/06 03:53:29;;;;;;;12.02;6.82;;;;;;;;;;4126062;28;20034;-73
2021/10/06 03:55:30;;;;;;;10.15;6.53;;;;;;;;;;4132307;28;20038;-74
2021/10/06 03:57:31;;;;;;;12.60;7.55;;;;;;;;;;4132788;28;20026;-75
2021/10/06 03:59:32;;;;;;;16.83;8.05;;;;;;;;;;4122302;28;20478;-74
2021/10/06 04:01:34;;;;;;;13.15;8.20;;;;;;;;;;4104057;28;20466;-74
2021/10/06 04:03:35;;;;;;;13.25;8.32;;;;;;;;;;4116394;28;20569;-76
2021/10/06 04:05:36;;;;;;;11.90;7.05;;;;;;;;;;4090619;28;20035;-76
2021/10/06 04:07:37;;;;;;;14.88;8.23;;;;;;;;;;4121374;28;20295;-73
2021/10/06 04:09:38;;;;;;;11.20;7.85;;;;;;;;;;4121857;28;20062;-73
2021/10/06 04:11:40;;;;;;;15.15;8.45;;;;;;;;;;4100031;28;20121;-73
2021/10/06 04:13:41;;;;;;;11.75;8.23;;;;;;;;;;4118406;28;20054;-74
2021/10/06 04:15:42;;;;;;;12.55;8.38;;;;;;;;;;4115648;28;20086;-74
2021/10/06 04:17:43;;;;;;;11.77;7.13;;;;;;;;;;4117096;28;20110;-74
2021/10/06 04:19:45;;;;;;;7.78;6.13;;;;;;;;;;4115414;28;20486;-74
2021/10/06 04:21:46;;;;;;;7.97;5.50;;;;;;;;;;4117140;28;20462;-73
2021/10/06 04:23:47;;;;;;;9.65;5.50;;;;;;;;;;4114218;28;20179;-74
2021/10/06 04:25:48;;;;;;;10.00;5.72;;;;;;;;;;4115427;28;20509;-73
2021/10/06 04:27:49;;;;;;;8.20;4.55;;;;;;;;;;4115614;28;20039;-73
2021/10/06 04:29:51;;;;;;;9.57;4.45;;;;;;;;;;4115928;28;20122;-74
2021/10/06 04:31:52;;;;;;;5.07;3.90;;;;;;;;;;4131105;28;20499;-73
2021/10/06 04:33:53;;;;;;;10.20;3.60;;;;;;;;;;4114875;28;20047;-73
2021/10/06 04:35:54;;;;;;;4.95;3.30;;;;;;;;;;4115385;28;20359;-74
2021/10/06 04:37:55;;;;;;;10.98;3.38;;;;;;;;;;4105596;28;20071;-73
2021/10/06 04:39:56;;;;;;;7.07;3.22;;;;;;;;;;4114950;28;20476;-73
2021/10/06 04:41:57;;;;;;;4.07;3.00;;;;;;;;;;4117332;28;20136;-73
2021/10/06 04:43:59;;;;;;;8.40;3.42;;;;;;;;;;4113808;28;20494;-74
2021/10/06 04:46:00;;;;;;;6.35;3.40;;;;;;;;;;4121963;28;20498;-74
2021/10/06 04:48:01;;;;;;;7.35;3.10;;;;;;;;;;4114220;28;20041;-75
2021/10/06 04:50:02;;;;;;;4.72;3.85;;;;;;;;;;4113934;28;20343;-74
2021/10/06 04:52:04;;;;;;;7.40;3.87;;;;;;;;;;4129067;28;20046;-76
2021/10/06 04:54:05;;;;;;;6.35;3.80;;;;;;;;;;4111596;28;20101;-74
2021/10/06 04:56:07;;;;;;;6.18;4.18;;;;;;;;;;4120824;28;20052;-73
2021/10/06 04:58:08;;;;;;;6.00;4.93;;;;;;;;;;4104446;28;20070;-73
2021/10/06 05:00:10;;;;;;;8.18;5.55;;;;;;;;;;4115849;28;20546;-73
2021/10/06 05:02:11;;;;;;;8.45;5.43;;;;;;;;;;4115537;28;20116;-73
2021/10/06 05:04:12;;;;;;;7.32;4.95;;;;;;;;;;4116538;28;20081;-73
2021/10/06 05:06:13;;;;;;;14.00;6.25;;;;;;;;;;4114593;28;20518;-73
2021/10/06 05:08:14;;;;;;;10.35;6.68;;;;;;;;;;4128632;28;20607;-74
2021/10/06 05:10:15;;;;;;;11.20;7.40;;;;;;;;;;4112489;28;20522;-74
2021/10/06 05:12:16;;;;;;;10.93;7.60;;;;;;;;;;4115605;28;20097;-75
2021/10/06 05:14:18;;;;;;;11.13;7.40;;;;;;;;;;4114734;28;20046;-76
2021/10/06 05:16:19;;;;;;;12.68;7.93;;;;;;;;;;4114601;28;20213;-74
2021/10/06 05:18:20;;;;;;;10.02;8.15;;;;;;;;;;4111860;28;20081;-73
2021/10/06 05:20:21;;;;;;;13.05;9.35;;;;;;;;;;4114966;28;20355;-73
2021/10/06 05:22:22;;;;;;;17.58;8.55;;;;;;;;;;4115213;28;20086;-74
2021/10/06 05:24:24;;;;;;;15.60;8.60;;;;;;;;;;4105130;28;20462;-73
2021/10/06 05:26:25;;;;;;;16.48;8.75;;;;;;;;;;4127215;28;20443;-76
2021/10/06 05:28:26;;;;;;;16.98;10.38;;;;;;;;;;4123733;28;20470;-76
2021/10/06 05:30:27;;;;;;;13.82;8.32;;;;;;;;;;4130409;28;20041;-75
2021/10/06 05:32:28;;;;;;;15.38;8.57;;;;;;;;;;4125012;28;20049;-75
2021/10/06 05:34:31;;;;;;;14.18;7.10;;;;;;;;;;4113353;28;20034;-74
2021/10/06 05:36:32;;;;;;;15.40;8.77;;;;;;;;;;4115795;28;20556;-74
2021/10/06 05:38:34;;;;;;;19.23;8.50;;;;;;;;;;4114513;28;20047;-74
2021/10/06 05:40:35;;;;;;;21.88;8.18;;;;;;;;;;4127153;28;20507;-76
2021/10/06 05:42:36;;;;;;;9.43;6.18;;;;;;;;;;4108833;28;20058;-76
2021/10/06 05:44:37;;;;;;;11.05;6.57;;;;;;;;;;4112845;28;20473;-74
2021/10/06 05:46:38;;;;;;;11.45;6.45;;;;;;;;;;4112780;28;20497;-73
2021/10/06 05:48:39;;;;;;;18.13;8.20;;;;;;;;;;4113537;28;20039;-73
2021/10/06 05:50:40;;;;;;;10.88;7.63;;;;;;;;;;4113941;28;20042;-72
2021/10/06 05:52:42;;;;;;;13.05;8.23;;;;;;;;;;4114674;28;20073;-72
2021/10/06 05:54:43;;;;;;;13.18;6.72;;;;;;;;;;4127923;28;20030;-75
2021/10/06 05:56:44;;;;;;;12.32;7.38;;;;;;;;;;4109997;28;20170;-74
2021/10/06 05:58:45;;;;;;;16.10;8.30;;;;;;;;;;4115911;28;20050;-74
2021/10/06 06:00:46;;;;;;;20.67;8.60;;;;;;;;;;4099413;28;20086;-73
2021/10/06 06:02:47;;;;;;;9.52;6.93;;;;;;;;;;4112791;28;20552;-73
2021/10/06 06:04:49;;;;;;;12.75;7.53;;;;;;;;;;4113902;28;20094;-73
2021/10/06 06:06:50;;;;;;;13.25;7.88;;;;;;;;;;4111748;28;20567;-72
2021/10/06 06:08:51;;;;;;;12.45;7.93;;;;;;;;;;4115402;28;20041;-74
2021/10/06 06:10:52;;;;;;;12.93;6.72;;;;;;;;;;4112997;28;20705;-76
2021/10/06 06:12:53;;;;;;;13.63;9.13;;;;;;;;;;4113453;28;20074;-74
2021/10/06 06:14:54;;;;;;;11.63;8.35;;;;;;;;;;4114964;28;20847;-76
2021/10/06 06:16:56;;;;;;;10.07;8.32;;;;;;;;;;4113271;28;20097;-74
2021/10/06 06:18:57;;;;;;;13.07;7.80;;;;;;;;;;4124703;28;20042;-73
2021/10/06 06:20:59;;;;;;;10.80;8.05;;;;;;;;;;4113868;28;20441;-75
2021/10/06 06:23:00;;;;;;;16.77;8.52;;;;;;;;;;4126689;28;20406;-76
2021/10/06 06:25:01;;;;;;;9.10;6.63;;;;;;;;;;4096832;28;20122;-74
2021/10/06 06:27:03;;;;;;;12.35;7.25;;;;;;;;;;4112427;28;20058;-77
2021/10/06 06:29:04;;;;;;;11.65;7.75;;;;;;;;;;4128264;28;20126;-72
2021/10/06 06:31:06;;;;;;;14.70;8.90;;;;;;;;;;4108930;28;20034;-74
2021/10/06 06:33:07;;;;;;;15.05;9.35;;;;;;;;;;4127355;28;20038;-74
2021/10/06 06:35:10;;;;;;;15.65;9.25;;;;;;;;;;4108820;28;20152;-75
2021/10/06 06:37:11;;;;;;;12.90;7.37;;;;;;;;;;4100957;28;20042;-75
2021/10/06 06:39:12;;;;;;;13.20;7.18;;;;;;;;;;4082539;28;20600;-75
2021/10/06 06:41:13;;;;;;;16.33;7.97;;;;;;;;;;4097988;28;20069;-76
2021/10/06 06:43:14;;;;;;;9.80;6.63;;;;;;;;;;4111681;28;20041;-76
2021/10/06 06:45:15;;;;;;;12.63;6.68;;;;;;;;;;4098214;28;20054;-73
2021/10/06 06:47:17;;;;;;;10.30;7.05;;;;;;;;;;4097421;28;20045;-74
2021/10/06 06:49:18;;;;;;;11.25;6.05;;;;;;;;;;4081033;28;20487;-72
2021/10/06 06:51:19;;;;;;;10.52;6.75;;;;;;;;;;4097414;28;20125;-74
2021/10/06 06:53:26;;;;;;;9.20;6.88;;;;;;;;;;4097964;28;20049;-73
2021/10/06 06:55:27;;;;;;;8.77;6.50;;;;;;;;;;4112933;28;20034;-73
2021/10/06 06:57:29;;;;;;;19.02;8.35;;;;;;;;;;4098079;28;20034;-72
2021/10/06 06:59:30;;;;;;;12.32;8.27;;;;;;;;;;4113465;28;20038;-72
2021/10/06 07:01:31;;;;;;;12.13;7.47;;;;;;;;;;4112336;28;20438;-72
2021/10/06 07:03:32;;;;;;;13.07;7.60;;;;;;;;;;4097034;28;20035;-73
2021/10/06 07:05:34;;;;;;;14.25;8.05;;;;;;;;;;4096479;28;20047;-73
2021/10/06 07:07:35;;;;;;;15.38;8.95;;;;;;;;;;4096825;28;20047;-75
2021/10/06 07:09:36;;;;;;;15.82;8.65;;;;;;;;;;4095337;28;20053;-76
2021/10/06 07:11:37;;;;;;;11.77;7.70;;;;;;;;;;4097552;28;20078;-75
2021/10/06 07:13:38;;;;;;;8.48;7.25;;;;;;;;;;4096792;28;20062;-76
2021/10/06 07:15:39;;;;;;;19.17;9.32;;;;;;;;;;4096235;28;20474;-75
2021/10/06 07:17:41;;;;;;;16.52;8.85;;;;;;;;;;4096139;28;20699;-73
2021/10/06 07:19:42;;;;;;;14.32;9.25;;;;;;;;;;4095738;28;20474;-74
2021/10/06 07:21:44;;;;;;;12.82;8.18;;;;;;;;;;4097579;28;20039;-74
2021/10/06 07:23:45;;;;;;;13.23;9.25;;;;;;;;;;4097748;28;20030;-74
2021/10/06 07:25:46;;;;;;;18.58;8.55;;;;;;;;;;4099413;28;20204;-74
2021/10/06 07:27:47;;;;;;;15.77;9.20;;;;;;;;;;4098026;28;20039;-74
2021/10/06 07:29:48;;;;;;;13.10;7.82;;;;;;;;;;4099448;28;20049;-77
2021/10/06 07:31:50;;;;;;;18.15;9.40;;;;;;;;;;4099907;28;20131;-76
2021/10/06 07:33:52;;;;;;;11.10;6.53;;;;;;;;;;4084813;28;20043;-77
2021/10/06 07:35:53;;;;;;;12.18;7.35;;;;;;;;;;4101109;28;20050;-77
2021/10/06 07:37:54;;;;;;;17.02;7.60;;;;;;;;;;4100563;28;20121;-76
2021/10/06 07:39:55;;;;;;;16.38;8.18;;;;;;;;;;4099084;28;20133;-76
2021/10/06 07:41:56;;;;;;;13.00;7.50;;;;;;;;;;4099865;28;20057;-76
2021/10/06 07:43:57;;;;;;;11.45;6.78;;;;;;;;;;4101204;28;20077;-76
2021/10/06 07:45:58;;;;;;;16.35;6.28;;;;;;;;;;4100787;28;20058;-75
2021/10/06 07:48:00;;;;;;;13.48;6.45;;;;;;;;;;4099981;28;20069;-75
2021/10/06 07:50:01;;;;;;;9.77;6.60;;;;;;;;;;4098336;28;20134;-75
2021/10/06 07:52:02;;;;;;;12.90;5.93;;;;;;;;;;4099136;28;20446;-74
2021/10/06 07:54:03;;;;;;;11.88;6.35;;;;;;;;;;4117371;28;21048;-75
2021/10/06 07:56:05;;;;;;;13.65;6.20;;;;;;;;;;4090460;28;20082;-76
2021/10/06 07:58:06;;;;;;;13.75;6.32;;;;;;;;;;4090846;28;20094;-75
2021/10/06 08:00:08;;;;;;;12.05;6.15;;;;;;;;;;4100061;28;20069;-75
2021/10/06 08:02:10;;;;;;;11.43;7.00;;;;;;;;;;4099772;28;20142;-74
2021/10/06 08:04:11;;;;;;;16.13;7.65;;;;;;;;;;4101445;28;20375;-75
2021/10/06 08:06:13;;;;;;;16.25;7.25;;;;;;;;;;4100841;28;20030;-75
2021/10/06 08:08:14;;;;;;;12.05;6.72;;;;;;;;;;4102138;28;20035;-76
2021/10/06 08:10:16;;;;;;;12.15;7.47;;;;;;;;;;4102095;28;20050;-74
2021/10/06 08:12:17;;;;;;;12.98;6.20;;;;;;;;;;4115861;28;20065;-75
2021/10/06 08:14:18;;;;;;;13.68;6.28;;;;;;;;;;4099828;28;20421;-75
2021/10/06 08:16:19;;;;;;;7.90;5.40;;;;;;;;;;4100029;28;20058;-74
2021/10/06 08:18:21;;;;;;;6.82;5.07;;;;;;;;;;4100523;28;20049;-73
2021/10/06 08:20:22;;;;;;;14.15;6.68;;;;;;;;;;4100837;28;20055;-74
2021/10/06 08:22:24;;;;;;;9.57;6.20;;;;;;;;;;4099962;28;20042;-73
2021/10/06 08:24:25;;;;;;;8.77;5.45;;;;;;;;;;4100071;28;20121;-74
2021/10/06 08:26:26;;;;;;;11.85;7.13;;;;;;;;;;4100234;28;20047;-73
2021/10/06 08:28:27;;;;;;;9.35;5.70;;;;;;;;;;4101028;28;20046;-73
2021/10/06 08:30:29;;;;;;;12.68;5.93;;;;;;;;;;4113432;28;20057;-73
2021/10/06 08:32:30;;;;;;;11.55;4.82;;;;;;;;;;4115090;28;20054;-74
2021/10/06 08:34:31;;;;;;;9.48;4.38;;;;;;;;;;4098245;28;20054;-72
2021/10/06 08:36:33;;;;;;;5.85;4.57;;;;;;;;;;4096967;28;20093;-71
2021/10/06 08:38:35;;;;;;;12.13;5.40;;;;;;;;;;4097763;28;20061;-71
2021/10/06 08:40:38;;;;;;;12.93;4.75;;;;;;;;;;4099770;28;20606;-71
2021/10/06 08:42:41;;;;;;;11.43;4.75;;;;;;;;;;4097851;28;20070;-71
2021/10/06 08:44:46;;;;;;;17.58;4.72;;;;;;;;;;4100131;28;20490;-72
2021/10/06 08:46:48;;;;;;;13.48;4.75;;;;;;;;;;4081962;28;20038;-70
2021/10/06 08:48:54;;;;;;;10.35;4.53;;;;;;;;;;4088338;28;20267;-73
2021/10/06 08:50:55;;;;;;;10.20;4.57;;;;;;;;;;4082305;28;20395;-72
2021/10/06 08:52:56;;;;;;;9.38;4.15;;;;;;;;;;4113115;28;20074;-73
2021/10/06 08:54:57;;;;;;;8.02;3.85;;;;;;;;;;4081893;28;20082;-73
2021/10/06 08:56:59;;;;;;;8.48;3.70;;;;;;;;;;4100081;28;20082;-74
2021/10/06 08:59:00;;;;;;;15.50;4.15;;;;;;;;;;4099408;28;20054;-72
2021/10/06 09:01:02;;;;;;;13.32;3.58;;;;;;;;;;4099126;28;20505;-73
2021/10/06 09:03:08;;;;;;;8.15;4.15;;;;;;;;;;4089528;28;20043;-72
2021/10/06 09:05:11;;;;;;;10.77;4.28;;;;;;;;;;4082589;28;20035;-72
2021/10/06 09:07:12;;;;;;;9.75;3.70;;;;;;;;;;4099995;28;20031;-71
2021/10/06 09:09:22;;;;;;;8.20;3.75;;;;;;;;;;4098596;28;20142;-74
2021/10/06 09:11:30;;;;;;;11.70;3.83;;;;;;;;;;4099506;28;20522;-72
2021/10/06 09:13:34;;;;;;;7.88;3.30;;;;;;;;;;4097840;28;20047;-71
2021/10/06 09:15:48;;;;;;;12.25;3.85;;;;;;;;;;4098768;28;20126;-71
2021/10/06 09:18:00;;;;;;;6.10;2.70;;;;;;;;;;4098536;28;20038;-71
2021/10/06 09:20:02;;;;;;;11.02;3.67;;;;;;;;;;4098520;28;20031;-72
2021/10/06 09:22:03;;;;;;;8.63;2.65;;;;;;;;;;4083200;28;20053;-71
2021/10/06 09:24:07;;;;;;;5.63;2.80;;;;;;;;;;4114800;28;20609;-71
2021/10/06 09:26:10;;;;;;;13.68;2.85;;;;;;;;;;4099106;28;20518;-70
2021/10/06 09:28:22;;;;;;;9.25;3.00;;;;;;;;;;4100101;28;20043;-71
2021/10/06 09:30:24;;;;;;;5.97;2.38;;;;;;;;;;4099768;28;20515;-71
2021/10/06 09:32:29;;;;;;;9.55;2.70;;;;;;;;;;4082150;28;20454;-71
2021/10/06 09:34:31;;;;;;;4.07;2.78;;;;;;;;;;4112698;28;20129;-73
2021/10/06 09:36:35;;;;;;;5.68;2.45;;;;;;;;;;4111320;28;20126;-71
2021/10/06 09:38:56;;;;;;;5.85;2.85;;;;;;;;;;4100087;28;20062;-71
2021/10/06 09:40:57;;;;;;;6.63;2.58;;;;;;;;;;4098222;28;20407;-70
2021/10/06 09:43:00;;;;;;;5.72;2.47;;;;;;;;;;4084625;28;20058;-71
2021/10/06 09:45:02;;;;;;;6.40;2.72;;;;;;;;;;4101020;28;20042;-71
2021/10/06 09:47:03;;;;;;;7.07;2.60;;;;;;;;;;4099372;28;20062;-71
2021/10/06 09:49:26;;;;;;;10.68;3.47;;;;;;;;;;4098901;28;20137;-70
2021/10/06 09:51:27;;;;;;;8.27;3.20;;;;;;;;;;4098860;28;20647;-71
2021/10/06 09:53:28;;;;;;;9.23;3.47;;;;;;;;;;4114428;28;20523;-72
2021/10/06 09:55:33;;;;;;;6.93;3.40;;;;;;;;;;4097136;28;20703;-72
2021/10/06 09:57:37;;;;;;;10.27;3.50;;;;;;;;;;4113139;28;20108;-71
2021/10/06 09:59:38;;;;;;;8.70;4.00;;;;;;;;;;4099422;28;20054;-70
2021/10/06 10:01:44;;;;;;;9.48;3.05;;;;;;;;;;4104637;28;20057;-71
2021/10/06 10:03:45;;;;;;;10.38;3.78;;;;;;;;;;4097154;28;20047;-71
2021/10/06 10:05:47;;;;;;;10.55;3.33;;;;;;;;;;4098724;28;20055;-70
2021/10/06 10:07:53;;;;;;;9.93;3.00;;;;;;;;;;4096479;28;20133;-71
2021/10/06 10:09:55;;;;;;;10.68;3.20;;;;;;;;;;4097393;28;20055;-71
2021/10/06 10:11:56;;;;;;;7.05;3.25;;;;;;;;;;4097415;28;20054;-71
2021/10/06 10:13:58;;;;;;;6.50;2.80;;;;;;;;;;4083692;28;20046;-71
2021/10/06 10:16:00;;;;;;;6.43;2.70;;;;;;;;;;4114646;28;20050;-71
2021/10/06 10:18:04;;;;;;;9.93;3.65;;;;;;;;;;4097534;28;20440;-71
2021/10/06 10:20:14;;;;;;;11.48;3.40;;;;;;;;;;4114419;28;20073;-72
2021/10/06 10:22:15;;;;;;;7.50;2.72;;;;;;;;;;4099820;28;20059;-71
2021/10/06 10:24:24;;;;;;;10.60;2.90;;;;;;;;;;4099148;28;20090;-72
2021/10/06 10:26:26;;;;;;;10.02;3.50;;;;;;;;;;4100397;28;20128;-71
2021/10/06 10:28:41;;;;;;;8.85;3.42;;;;;;;;;;4099599;28;20821;-71
2021/10/06 10:30:54;;;;;;;6.32;3.00;;;;;;;;;;4113949;28;20658;-71
2021/10/06 10:32:55;;;;;;;4.10;2.60;;;;;;;;;;4098893;28;20045;-71
2021/10/06 10:35:02;;;;;;;3.20;2.63;;;;;;;;;;4098229;28;20173;-70
2021/10/06 10:37:04;;;;;;;9.65;3.15;;;;;;;;;;4099798;28;20125;-72
2021/10/06 10:39:08;;;;;;;4.40;2.15;;;;;;;;;;4099279;28;20046;-71
2021/10/06 10:41:09;;;;;;;5.88;2.50;;;;;;;;;;4084416;28;20039;-71
2021/10/06 10:43:15;;;;;;;4.78;2.40;;;;;;;;;;4098704;28;20413;-71
2021/10/06 10:46:01;;;;;;;7.55;2.58;;;;;;;;;;4114308;28;20121;-71
2021/10/06 10:48:02;;;;;;;8.20;3.00;;;;;;;;;;4065304;29;20087;-73
2021/10/06 10:50:04;;;;;;;5.05;2.28;;;;;;;;;;4048432;29;20575;-74
2021/10/06 10:52:05;;;;;;;6.00;2.70;;;;;;;;;;4050043;28;20036;-74
2021/10/06 10:54:09;;;;;;;11.10;3.08;;;;;;;;;;4098457;28;20492;-73
2021/10/06 10:56:11;;;;;;;6.93;2.67;;;;;;;;;;4099037;28;20041;-72
2021/10/06 10:58:30;;;;;;;6.93;3.53;;;;;;;;;;4082365;28;20415;-71
2021/10/06 11:00:32;;;;;;;12.52;3.53;;;;;;;;;;4096986;28;20133;-72
2021/10/06 11:02:37;;;;;;;10.38;3.42;;;;;;;;;;4080857;28;20050;-71
2021/10/06 11:04:39;;;;;;;7.32;3.03;;;;;;;;;;4098878;28;20047;-71
2021/10/06 11:06:42;;;;;;;5.50;2.80;;;;;;;;;;4098919;28;20425;-72
2021/10/06 11:08:43;;;;;;;4.90;2.85;;;;;;;;;;4098785;28;20488;-70
2021/10/06 11:10:45;;;;;;;7.45;3.05;;;;;;;;;;4099022;28;20733;-70
2021/10/06 11:13:05;;;;;;;10.15;3.20;;;;;;;;;;4096135;28;20075;-72
2021/10/06 11:15:07;;;;;;;6.70;2.92;;;;;;;;;;4112478;28;20509;-71
2021/10/06 11:17:16;;;;;;;6.80;2.95;;;;;;;;;;4098390;28;20130;-71
2021/10/06 11:19:45;;;;;;;10.40;3.75;;;;;;;;;;4082354;28;20047;-70
2021/10/06 11:21:48;;;;;;;12.25;3.97;;;;;;;;;;4097907;28;20506;-71
2021/10/06 11:23:49;;;;;;;9.88;2.97;;;;;;;;;;4097204;28;20118;-71
2021/10/06 11:25:50;;;;;;;7.13;3.67;;;;;;;;;;4113077;28;20498;-70
2021/10/06 11:27:52;;;;;;;8.43;2.85;;;;;;;;;;4083918;28;20106;-70
2021/10/06 11:29:55;;;;;;;11.55;3.42;;;;;;;;;;4099461;28;20074;-71
2021/10/06 11:32:02;;;;;;;7.43;3.75;;;;;;;;;;4112644;28;20504;-70
2021/10/06 11:34:07;;;;;;;6.88;2.58;;;;;;;;;;4093437;28;20066;-70
2021/10/06 11:36:14;;;;;;;6.40;3.38;;;;;;;;;;4098040;28;20035;-72
2021/10/06 11:38:16;;;;;;;6.22;2.50;;;;;;;;;;4100151;28;20390;-70
2021/10/06 11:40:18;;;;;;;12.83;2.70;;;;;;;;;;4099560;28;20039;-70
2021/10/06 11:42:20;;;;;;;6.18;2.80;;;;;;;;;;4083221;28;20047;-70
2021/10/06 11:44:30;;;;;;;3.83;2.15;;;;;;;;;;4097832;28;20088;-70
2021/10/06 11:46:33;;;;;;;6.53;2.38;;;;;;;;;;4113600;28;20031;-70
2021/10/06 11:48:34;;;;;;;7.43;2.70;;;;;;;;;;4098307;28;20181;-73
2021/10/06 11:50:36;;;;;;;10.45;2.75;;;;;;;;;;4098017;28;20046;-70
2021/10/06 11:52:37;;;;;;;6.95;4.53;;;;;;;;;;4097611;28;20565;-71
2021/10/06 11:54:39;;;;;;;4.15;2.58;;;;;;;;;;4099419;28;20043;-70
2021/10/06 11:56:41;;;;;;;5.63;2.10;;;;;;;;;;4098219;28;20057;-71
2021/10/06 11:58:42;;;;;;;3.72;2.35;;;;;;;;;;4097839;28;20102;-71
2021/10/06 12:00:43;;;;;;;2.85;2.25;;;;;;;;;;4096853;28;20041;-71
2021/10/06 12:02:45;;;;;;;7.28;2.90;;;;;;;;;;4098472;28;20062;-70
2021/10/06 12:04:51;;;;;;;6.35;2.22;;;;;;;;;;4105940;28;20085;-70
2021/10/06 12:06:59;;;;;;;4.30;2.95;;;;;;;;;;4098740;28;20477;-70